sensor_id;sensor_type;location;lat;lon;timestamp;temperature;humidity
56478;DHT22;42382;53.210;5.772;2023-05-19T00:01:53;9.30;79.90
56478;DHT22;42382;53.210;5.772;2023-05-19T00:04:19;9.30;79.90
56478;DHT22;42382;53.210;5.772;2023-05-19T00:06:46;9.30;80.00
56478;DHT22;42382;53.210;5.772;2023-05-19T00:09:15;9.30;79.80
56478;DHT22;42382;53.210;5.772;2023-05-19T00:11:40;9.30;79.90
56478;DHT22;42382;53.210;5.772;2023-05-19T00:14:06;9.30;80.10
56478;DHT22;42382;53.210;5.772;2023-05-19T00:16:33;9.30;80.00
56478;DHT22;42382;53.210;5.772;2023-05-19T00:19:00;9.20;80.20
56478;DHT22;42382;53.210;5.772;2023-05-19T00:21:27;9.20;80.30
56478;DHT22;42382;53.210;5.772;2023-05-19T00:23:52;9.20;80.60
56478;DHT22;42382;53.210;5.772;2023-05-19T00:26:18;9.20;80.60
56478;DHT22;42382;53.210;5.772;2023-05-19T00:28:43;9.20;80.60
56478;DHT22;42382;53.210;5.772;2023-05-19T00:31:09;9.20;80.60
56478;DHT22;42382;53.210;5.772;2023-05-19T00:33:34;9.20;80.60
56478;DHT22;42382;53.210;5.772;2023-05-19T00:36:01;9.20;80.70
56478;DHT22;42382;53.210;5.772;2023-05-19T00:38:30;9.10;80.70
56478;DHT22;42382;53.210;5.772;2023-05-19T00:40:56;9.10;80.80
56478;DHT22;42382;53.210;5.772;2023-05-19T00:43:22;9.20;81.00
56478;DHT22;42382;53.210;5.772;2023-05-19T00:45:48;9.10;80.90
56478;DHT22;42382;53.210;5.772;2023-05-19T00:48:13;9.10;80.90
56478;DHT22;42382;53.210;5.772;2023-05-19T00:50:39;9.10;81.00
56478;DHT22;42382;53.210;5.772;2023-05-19T00:53:04;9.10;81.50
56478;DHT22;42382;53.210;5.772;2023-05-19T00:55:30;9.10;81.50
56478;DHT22;42382;53.210;5.772;2023-05-19T00:57:57;9.10;81.50
56478;DHT22;42382;53.210;5.772;2023-05-19T01:00:22;9.10;81.80
56478;DHT22;42382;53.210;5.772;2023-05-19T01:02:48;9.10;81.80
56478;DHT22;42382;53.210;5.772;2023-05-19T01:05:16;9.10;82.00
56478;DHT22;42382;53.210;5.772;2023-05-19T01:07:42;9.10;82.10
56478;DHT22;42382;53.210;5.772;2023-05-19T01:10:08;9.00;82.00
56478;DHT22;42382;53.210;5.772;2023-05-19T01:12:34;9.10;82.00
56478;DHT22;42382;53.210;5.772;2023-05-19T01:15:00;9.00;82.10
56478;DHT22;42382;53.210;5.772;2023-05-19T01:17:34;9.00;81.90
56478;DHT22;42382;53.210;5.772;2023-05-19T01:20:06;9.00;82.30
56478;DHT22;42382;53.210;5.772;2023-05-19T01:25:28;9.00;82.30
56478;DHT22;42382;53.210;5.772;2023-05-19T01:30:43;8.90;82.40
56478;DHT22;42382;53.210;5.772;2023-05-19T01:33:10;8.90;82.60
56478;DHT22;42382;53.210;5.772;2023-05-19T01:35:38;8.90;82.70
56478;DHT22;42382;53.210;5.772;2023-05-19T01:38:06;8.90;82.60
56478;DHT22;42382;53.210;5.772;2023-05-19T01:40:32;8.90;82.70
56478;DHT22;42382;53.210;5.772;2023-05-19T01:42:58;8.90;82.60
56478;DHT22;42382;53.210;5.772;2023-05-19T01:45:25;8.90;82.60
56478;DHT22;42382;53.210;5.772;2023-05-19T01:47:53;8.90;82.50
56478;DHT22;42382;53.210;5.772;2023-05-19T01:50:19;8.90;82.60
56478;DHT22;42382;53.210;5.772;2023-05-19T01:52:44;8.90;82.60
56478;DHT22;42382;53.210;5.772;2023-05-19T01:55:10;8.90;82.70
56478;DHT22;42382;53.210;5.772;2023-05-19T02:05:17;8.80;82.80
56478;DHT22;42382;53.210;5.772;2023-05-19T02:07:53;8.90;82.90
56478;DHT22;42382;53.210;5.772;2023-05-19T02:10:22;8.80;83.10
56478;DHT22;42382;53.210;5.772;2023-05-19T02:12:51;8.80;83.40
56478;DHT22;42382;53.210;5.772;2023-05-19T02:15:20;8.70;83.30
56478;DHT22;42382;53.210;5.772;2023-05-19T02:17:46;8.70;83.40
56478;DHT22;42382;53.210;5.772;2023-05-19T02:20:14;8.70;83.40
56478;DHT22;42382;53.210;5.772;2023-05-19T02:22:40;8.70;83.50
56478;DHT22;42382;53.210;5.772;2023-05-19T02:25:06;8.70;83.50
56478;DHT22;42382;53.210;5.772;2023-05-19T02:27:32;8.70;83.50
56478;DHT22;42382;53.210;5.772;2023-05-19T02:29:58;8.70;83.50
56478;DHT22;42382;53.210;5.772;2023-05-19T02:32:23;8.60;83.60
56478;DHT22;42382;53.210;5.772;2023-05-19T02:34:49;8.60;83.70
56478;DHT22;42382;53.210;5.772;2023-05-19T02:37:14;8.60;83.70
56478;DHT22;42382;53.210;5.772;2023-05-19T02:39:40;8.60;83.70
56478;DHT22;42382;53.210;5.772;2023-05-19T02:42:06;8.60;83.90
56478;DHT22;42382;53.210;5.772;2023-05-19T02:44:31;8.60;83.90
56478;DHT22;42382;53.210;5.772;2023-05-19T02:46:57;8.50;84.00
56478;DHT22;42382;53.210;5.772;2023-05-19T02:49:23;8.50;84.10
56478;DHT22;42382;53.210;5.772;2023-05-19T02:51:48;8.50;84.10
56478;DHT22;42382;53.210;5.772;2023-05-19T02:54:14;8.50;84.00
56478;DHT22;42382;53.210;5.772;2023-05-19T02:56:39;8.40;84.10
56478;DHT22;42382;53.210;5.772;2023-05-19T02:59:05;8.40;84.20
56478;DHT22;42382;53.210;5.772;2023-05-19T03:01:30;8.40;84.20
56478;DHT22;42382;53.210;5.772;2023-05-19T03:03:57;8.40;84.30
56478;DHT22;42382;53.210;5.772;2023-05-19T03:06:22;8.40;84.40
56478;DHT22;42382;53.210;5.772;2023-05-19T03:08:48;8.30;84.40
56478;DHT22;42382;53.210;5.772;2023-05-19T03:11:14;8.30;84.30
56478;DHT22;42382;53.210;5.772;2023-05-19T03:13:40;8.30;84.30
56478;DHT22;42382;53.210;5.772;2023-05-19T03:16:05;8.30;84.30
56478;DHT22;42382;53.210;5.772;2023-05-19T03:18:32;8.30;84.40
56478;DHT22;42382;53.210;5.772;2023-05-19T03:20:58;8.20;84.30
56478;DHT22;42382;53.210;5.772;2023-05-19T03:23:24;8.20;84.40
56478;DHT22;42382;53.210;5.772;2023-05-19T03:25:50;8.20;84.50
56478;DHT22;42382;53.210;5.772;2023-05-19T03:28:18;8.30;84.50
56478;DHT22;42382;53.210;5.772;2023-05-19T03:30:44;8.20;84.60
56478;DHT22;42382;53.210;5.772;2023-05-19T03:33:09;8.20;84.60
56478;DHT22;42382;53.210;5.772;2023-05-19T03:35:35;8.20;84.70
56478;DHT22;42382;53.210;5.772;2023-05-19T03:38:00;8.20;84.80
56478;DHT22;42382;53.210;5.772;2023-05-19T03:40:26;8.20;84.90
56478;DHT22;42382;53.210;5.772;2023-05-19T03:42:51;8.10;85.00
56478;DHT22;42382;53.210;5.772;2023-05-19T03:45:18;8.10;85.00
56478;DHT22;42382;53.210;5.772;2023-05-19T03:47:44;8.20;85.00
56478;DHT22;42382;53.210;5.772;2023-05-19T03:50:11;8.20;85.10
56478;DHT22;42382;53.210;5.772;2023-05-19T03:52:37;8.20;85.40
56478;DHT22;42382;53.210;5.772;2023-05-19T03:55:04;8.20;85.40
56478;DHT22;42382;53.210;5.772;2023-05-19T03:57:31;8.10;85.60
56478;DHT22;42382;53.210;5.772;2023-05-19T03:59:58;8.20;86.00
56478;DHT22;42382;53.210;5.772;2023-05-19T04:02:23;8.20;85.60
56478;DHT22;42382;53.210;5.772;2023-05-19T04:04:49;8.30;85.70
56478;DHT22;42382;53.210;5.772;2023-05-19T04:07:15;8.30;85.90
56478;DHT22;42382;53.210;5.772;2023-05-19T04:09:41;8.30;85.90
56478;DHT22;42382;53.210;5.772;2023-05-19T04:12:07;8.30;86.10
56478;DHT22;42382;53.210;5.772;2023-05-19T04:14:33;8.30;86.00
56478;DHT22;42382;53.210;5.772;2023-05-19T04:16:58;8.30;86.20
56478;DHT22;42382;53.210;5.772;2023-05-19T04:19:24;8.30;86.30
56478;DHT22;42382;53.210;5.772;2023-05-19T04:21:50;8.40;86.30
56478;DHT22;42382;53.210;5.772;2023-05-19T04:24:16;8.40;86.20
56478;DHT22;42382;53.210;5.772;2023-05-19T04:26:42;8.40;86.50
56478;DHT22;42382;53.210;5.772;2023-05-19T04:29:10;8.40;86.40
56478;DHT22;42382;53.210;5.772;2023-05-19T04:31:39;8.50;86.20
56478;DHT22;42382;53.210;5.772;2023-05-19T04:34:05;8.50;86.30
56478;DHT22;42382;53.210;5.772;2023-05-19T04:36:32;8.50;86.40
56478;DHT22;42382;53.210;5.772;2023-05-19T04:38:58;8.50;86.30
56478;DHT22;42382;53.210;5.772;2023-05-19T04:41:31;8.60;86.70
56478;DHT22;42382;53.210;5.772;2023-05-19T04:43:58;8.60;86.60
56478;DHT22;42382;53.210;5.772;2023-05-19T04:46:24;8.60;86.60
56478;DHT22;42382;53.210;5.772;2023-05-19T04:48:51;8.60;86.60
56478;DHT22;42382;53.210;5.772;2023-05-19T04:51:18;8.70;86.60
56478;DHT22;42382;53.210;5.772;2023-05-19T04:53:44;8.60;86.40
56478;DHT22;42382;53.210;5.772;2023-05-19T04:56:10;8.80;86.40
56478;DHT22;42382;53.210;5.772;2023-05-19T04:58:39;8.80;86.70
56478;DHT22;42382;53.210;5.772;2023-05-19T05:01:06;8.90;86.60
56478;DHT22;42382;53.210;5.772;2023-05-19T05:03:33;8.80;86.60
56478;DHT22;42382;53.210;5.772;2023-05-19T05:05:59;8.90;86.90
56478;DHT22;42382;53.210;5.772;2023-05-19T05:08:25;8.90;86.70
56478;DHT22;42382;53.210;5.772;2023-05-19T05:10:52;9.00;86.60
56478;DHT22;42382;53.210;5.772;2023-05-19T05:13:22;9.00;86.70
56478;DHT22;42382;53.210;5.772;2023-05-19T05:15:48;9.10;86.70
56478;DHT22;42382;53.210;5.772;2023-05-19T05:18:14;9.10;86.60
56478;DHT22;42382;53.210;5.772;2023-05-19T05:20:41;9.10;86.80
56478;DHT22;42382;53.210;5.772;2023-05-19T05:23:08;9.10;87.00
56478;DHT22;42382;53.210;5.772;2023-05-19T05:25:35;9.20;87.00
56478;DHT22;42382;53.210;5.772;2023-05-19T05:28:00;9.30;87.00
56478;DHT22;42382;53.210;5.772;2023-05-19T05:30:29;9.30;87.10
56478;DHT22;42382;53.210;5.772;2023-05-19T05:32:55;9.40;87.10
56478;DHT22;42382;53.210;5.772;2023-05-19T05:35:22;9.40;87.10
56478;DHT22;42382;53.210;5.772;2023-05-19T05:37:48;9.40;87.30
56478;DHT22;42382;53.210;5.772;2023-05-19T05:40:14;9.50;87.10
56478;DHT22;42382;53.210;5.772;2023-05-19T05:42:40;9.50;87.10
56478;DHT22;42382;53.210;5.772;2023-05-19T05:45:07;9.60;87.10
56478;DHT22;42382;53.210;5.772;2023-05-19T05:47:33;9.60;86.90
56478;DHT22;42382;53.210;5.772;2023-05-19T05:49:58;9.70;86.90
56478;DHT22;42382;53.210;5.772;2023-05-19T05:52:28;9.70;86.90
56478;DHT22;42382;53.210;5.772;2023-05-19T05:54:55;9.80;87.00
56478;DHT22;42382;53.210;5.772;2023-05-19T05:57:21;9.80;86.90
56478;DHT22;42382;53.210;5.772;2023-05-19T05:59:47;9.80;86.90
56478;DHT22;42382;53.210;5.772;2023-05-19T06:02:12;9.90;86.90
56478;DHT22;42382;53.210;5.772;2023-05-19T06:04:38;9.90;86.90
56478;DHT22;42382;53.210;5.772;2023-05-19T06:07:05;10.00;86.80
56478;DHT22;42382;53.210;5.772;2023-05-19T06:09:30;10.10;86.70
56478;DHT22;42382;53.210;5.772;2023-05-19T06:11:57;10.10;86.70
56478;DHT22;42382;53.210;5.772;2023-05-19T06:14:25;10.20;86.80
56478;DHT22;42382;53.210;5.772;2023-05-19T06:16:51;10.20;86.80
56478;DHT22;42382;53.210;5.772;2023-05-19T06:19:17;10.30;86.70
56478;DHT22;42382;53.210;5.772;2023-05-19T06:21:44;10.40;86.60
56478;DHT22;42382;53.210;5.772;2023-05-19T06:24:10;10.40;86.50
56478;DHT22;42382;53.210;5.772;2023-05-19T06:26:36;10.50;86.30
56478;DHT22;42382;53.210;5.772;2023-05-19T06:29:02;10.50;86.30
56478;DHT22;42382;53.210;5.772;2023-05-19T06:31:28;10.60;86.20
56478;DHT22;42382;53.210;5.772;2023-05-19T06:33:53;10.70;86.00
56478;DHT22;42382;53.210;5.772;2023-05-19T06:36:19;10.70;85.80
56478;DHT22;42382;53.210;5.772;2023-05-19T06:38:44;10.80;85.80
56478;DHT22;42382;53.210;5.772;2023-05-19T06:41:11;10.90;85.70
56478;DHT22;42382;53.210;5.772;2023-05-19T06:43:37;10.90;85.60
56478;DHT22;42382;53.210;5.772;2023-05-19T06:46:02;11.00;85.50
56478;DHT22;42382;53.210;5.772;2023-05-19T06:48:28;11.00;85.40
56478;DHT22;42382;53.210;5.772;2023-05-19T06:50:54;11.10;85.20
56478;DHT22;42382;53.210;5.772;2023-05-19T06:53:20;11.20;85.10
56478;DHT22;42382;53.210;5.772;2023-05-19T06:55:46;11.20;84.90
56478;DHT22;42382;53.210;5.772;2023-05-19T06:58:14;11.30;84.70
56478;DHT22;42382;53.210;5.772;2023-05-19T07:00:40;11.40;84.60
56478;DHT22;42382;53.210;5.772;2023-05-19T07:03:05;11.40;84.70
56478;DHT22;42382;53.210;5.772;2023-05-19T07:05:31;11.80;85.10
56478;DHT22;42382;53.210;5.772;2023-05-19T07:07:57;12.80;84.90
56478;DHT22;42382;53.210;5.772;2023-05-19T07:10:22;14.00;83.30
56478;DHT22;42382;53.210;5.772;2023-05-19T07:12:48;15.20;82.30
56478;DHT22;42382;53.210;5.772;2023-05-19T07:15:13;16.20;80.00
56478;DHT22;42382;53.210;5.772;2023-05-19T07:17:40;17.10;77.20
56478;DHT22;42382;53.210;5.772;2023-05-19T07:20:06;17.80;73.00
56478;DHT22;42382;53.210;5.772;2023-05-19T07:22:35;18.30;70.10
56478;DHT22;42382;53.210;5.772;2023-05-19T07:25:01;18.70;67.50
56478;DHT22;42382;53.210;5.772;2023-05-19T07:27:26;19.30;65.70
56478;DHT22;42382;53.210;5.772;2023-05-19T07:29:52;19.80;63.70
56478;DHT22;42382;53.210;5.772;2023-05-19T07:32:18;20.10;60.30
56478;DHT22;42382;53.210;5.772;2023-05-19T07:34:43;20.50;57.30
56478;DHT22;42382;53.210;5.772;2023-05-19T07:37:09;20.80;55.10
56478;DHT22;42382;53.210;5.772;2023-05-19T07:39:35;21.00;53.50
56478;DHT22;42382;53.210;5.772;2023-05-19T07:42:01;21.40;52.20
56478;DHT22;42382;53.210;5.772;2023-05-19T07:44:26;21.60;50.50
56478;DHT22;42382;53.210;5.772;2023-05-19T07:46:53;21.80;48.60
56478;DHT22;42382;53.210;5.772;2023-05-19T07:49:19;21.90;46.70
56478;DHT22;42382;53.210;5.772;2023-05-19T07:51:44;22.00;46.60
56478;DHT22;42382;53.210;5.772;2023-05-19T07:54:10;22.30;45.80
56478;DHT22;42382;53.210;5.772;2023-05-19T07:56:36;22.50;45.10
56478;DHT22;42382;53.210;5.772;2023-05-19T07:59:02;22.40;44.20
56478;DHT22;42382;53.210;5.772;2023-05-19T08:01:29;22.40;43.90
56478;DHT22;42382;53.210;5.772;2023-05-19T08:03:55;22.60;42.70
56478;DHT22;42382;53.210;5.772;2023-05-19T08:06:21;23.10;42.50
56478;DHT22;42382;53.210;5.772;2023-05-19T08:08:46;23.40;41.00
56478;DHT22;42382;53.210;5.772;2023-05-19T08:11:12;23.30;40.10
56478;DHT22;42382;53.210;5.772;2023-05-19T08:13:37;23.20;40.60
56478;DHT22;42382;53.210;5.772;2023-05-19T08:16:03;23.20;40.40
56478;DHT22;42382;53.210;5.772;2023-05-19T08:18:29;23.10;40.20
56478;DHT22;42382;53.210;5.772;2023-05-19T08:20:54;23.00;39.40
56478;DHT22;42382;53.210;5.772;2023-05-19T08:23:20;23.00;38.80
56478;DHT22;42382;53.210;5.772;2023-05-19T08:25:46;23.10;38.70
56478;DHT22;42382;53.210;5.772;2023-05-19T08:28:12;23.00;38.60
56478;DHT22;42382;53.210;5.772;2023-05-19T08:30:37;22.90;39.40
56478;DHT22;42382;53.210;5.772;2023-05-19T08:33:03;22.80;40.00
56478;DHT22;42382;53.210;5.772;2023-05-19T08:35:29;22.80;39.40
56478;DHT22;42382;53.210;5.772;2023-05-19T08:37:54;22.80;39.30
56478;DHT22;42382;53.210;5.772;2023-05-19T08:40:20;22.90;39.70
56478;DHT22;42382;53.210;5.772;2023-05-19T08:42:47;23.10;39.50
56478;DHT22;42382;53.210;5.772;2023-05-19T08:45:12;23.20;39.50
56478;DHT22;42382;53.210;5.772;2023-05-19T08:47:41;23.10;38.90
56478;DHT22;42382;53.210;5.772;2023-05-19T08:50:08;23.00;38.10
56478;DHT22;42382;53.210;5.772;2023-05-19T08:52:40;22.90;37.70
56478;DHT22;42382;53.210;5.772;2023-05-19T08:55:14;22.70;37.70
56478;DHT22;42382;53.210;5.772;2023-05-19T08:57:47;22.50;38.50
56478;DHT22;42382;53.210;5.772;2023-05-19T09:00:13;22.70;38.50
56478;DHT22;42382;53.210;5.772;2023-05-19T09:02:39;22.80;39.00
56478;DHT22;42382;53.210;5.772;2023-05-19T09:05:05;22.90;38.40
56478;DHT22;42382;53.210;5.772;2023-05-19T09:07:31;23.00;38.50
56478;DHT22;42382;53.210;5.772;2023-05-19T09:10:00;23.20;38.60
56478;DHT22;42382;53.210;5.772;2023-05-19T09:12:25;23.10;38.50
56478;DHT22;42382;53.210;5.772;2023-05-19T09:14:51;23.10;38.70
56478;DHT22;42382;53.210;5.772;2023-05-19T09:17:17;23.00;38.50
56478;DHT22;42382;53.210;5.772;2023-05-19T09:19:43;22.90;38.80
56478;DHT22;42382;53.210;5.772;2023-05-19T09:22:08;22.80;39.10
56478;DHT22;42382;53.210;5.772;2023-05-19T09:24:35;22.80;39.60
56478;DHT22;42382;53.210;5.772;2023-05-19T09:27:02;22.80;39.40
56478;DHT22;42382;53.210;5.772;2023-05-19T09:29:27;22.80;38.90
56478;DHT22;42382;53.210;5.772;2023-05-19T09:31:53;22.80;39.70
56478;DHT22;42382;53.210;5.772;2023-05-19T09:34:20;22.90;39.30
56478;DHT22;42382;53.210;5.772;2023-05-19T09:36:48;22.90;39.10
56478;DHT22;42382;53.210;5.772;2023-05-19T09:39:17;23.10;39.20
56478;DHT22;42382;53.210;5.772;2023-05-19T09:41:43;23.10;38.60
56478;DHT22;42382;53.210;5.772;2023-05-19T09:44:20;23.00;39.20
56478;DHT22;42382;53.210;5.772;2023-05-19T09:46:46;23.00;38.70
56478;DHT22;42382;53.210;5.772;2023-05-19T09:49:12;23.10;39.20
56478;DHT22;42382;53.210;5.772;2023-05-19T09:51:40;23.20;39.30
56478;DHT22;42382;53.210;5.772;2023-05-19T09:54:06;23.30;39.10
56478;DHT22;42382;53.210;5.772;2023-05-19T09:56:34;23.20;38.50
56478;DHT22;42382;53.210;5.772;2023-05-19T09:59:00;22.70;38.50
56478;DHT22;42382;53.210;5.772;2023-05-19T10:01:26;22.30;38.80
56478;DHT22;42382;53.210;5.772;2023-05-19T10:03:51;22.10;39.80
56478;DHT22;42382;53.210;5.772;2023-05-19T10:06:17;22.20;40.00
56478;DHT22;42382;53.210;5.772;2023-05-19T10:08:43;22.30;39.80
56478;DHT22;42382;53.210;5.772;2023-05-19T10:11:10;22.60;40.20
56478;DHT22;42382;53.210;5.772;2023-05-19T10:13:37;22.80;39.30
56478;DHT22;42382;53.210;5.772;2023-05-19T10:16:04;22.90;38.90
56478;DHT22;42382;53.210;5.772;2023-05-19T10:18:32;22.70;39.30
56478;DHT22;42382;53.210;5.772;2023-05-19T10:20:58;22.80;39.40
56478;DHT22;42382;53.210;5.772;2023-05-19T10:23:25;22.80;39.00
56478;DHT22;42382;53.210;5.772;2023-05-19T10:25:54;22.80;38.20
56478;DHT22;42382;53.210;5.772;2023-05-19T10:28:21;22.40;38.90
56478;DHT22;42382;53.210;5.772;2023-05-19T10:30:52;22.40;39.40
56478;DHT22;42382;53.210;5.772;2023-05-19T10:33:25;22.40;38.50
56478;DHT22;42382;53.210;5.772;2023-05-19T10:36:48;22.10;38.70
56478;DHT22;42382;53.210;5.772;2023-05-19T10:39:10;22.20;39.80
56478;DHT22;42382;53.210;5.772;2023-05-19T10:47:25;22.80;40.00
56478;DHT22;42382;53.210;5.772;2023-05-19T10:49:54;23.10;39.40
56478;DHT22;42382;53.210;5.772;2023-05-19T10:52:23;23.00;38.00
56478;DHT22;42382;53.210;5.772;2023-05-19T10:54:54;22.90;38.20
56478;DHT22;42382;53.210;5.772;2023-05-19T10:57:27;22.80;38.90
56478;DHT22;42382;53.210;5.772;2023-05-19T10:59:54;22.90;38.50
56478;DHT22;42382;53.210;5.772;2023-05-19T11:02:43;23.10;38.90
56478;DHT22;42382;53.210;5.772;2023-05-19T11:05:12;23.30;36.60
56478;DHT22;42382;53.210;5.772;2023-05-19T11:07:55;23.30;36.50
56478;DHT22;42382;53.210;5.772;2023-05-19T11:10:24;23.10;37.10
56478;DHT22;42382;53.210;5.772;2023-05-19T11:12:50;23.00;37.60
56478;DHT22;42382;53.210;5.772;2023-05-19T11:15:16;23.00;37.10
56478;DHT22;42382;53.210;5.772;2023-05-19T11:17:45;22.80;36.00
56478;DHT22;42382;53.210;5.772;2023-05-19T11:20:26;22.60;36.30
56478;DHT22;42382;53.210;5.772;2023-05-19T11:23:14;22.60;36.70
56478;DHT22;42382;53.210;5.772;2023-05-19T11:25:46;22.80;35.70
56478;DHT22;42382;53.210;5.772;2023-05-19T11:28:20;22.70;36.20
56478;DHT22;42382;53.210;5.772;2023-05-19T11:30:50;22.80;36.40
56478;DHT22;42382;53.210;5.772;2023-05-19T11:33:19;22.80;36.60
56478;DHT22;42382;53.210;5.772;2023-05-19T11:35:46;22.70;35.80
56478;DHT22;42382;53.210;5.772;2023-05-19T11:38:12;22.60;35.10
56478;DHT22;42382;53.210;5.772;2023-05-19T11:40:42;22.20;35.10
56478;DHT22;42382;53.210;5.772;2023-05-19T11:43:08;22.10;36.00
56478;DHT22;42382;53.210;5.772;2023-05-19T11:45:34;22.10;36.90
56478;DHT22;42382;53.210;5.772;2023-05-19T11:48:00;22.10;37.40
56478;DHT22;42382;53.210;5.772;2023-05-19T11:50:27;22.10;35.50
56478;DHT22;42382;53.210;5.772;2023-05-19T11:52:53;21.90;35.70
56478;DHT22;42382;53.210;5.772;2023-05-19T11:55:20;21.70;34.70
56478;DHT22;42382;53.210;5.772;2023-05-19T11:57:56;21.40;36.30
56478;DHT22;42382;53.210;5.772;2023-05-19T12:00:33;21.40;36.60
56478;DHT22;42382;53.210;5.772;2023-05-19T12:03:01;21.50;35.60
56478;DHT22;42382;53.210;5.772;2023-05-19T12:05:27;21.30;35.40
56478;DHT22;42382;53.210;5.772;2023-05-19T12:07:54;21.10;36.30
56478;DHT22;42382;53.210;5.772;2023-05-19T12:10:27;20.90;36.40
56478;DHT22;42382;53.210;5.772;2023-05-19T12:12:53;20.90;36.10
56478;DHT22;42382;53.210;5.772;2023-05-19T12:15:20;20.80;37.10
56478;DHT22;42382;53.210;5.772;2023-05-19T12:17:49;20.70;38.20
56478;DHT22;42382;53.210;5.772;2023-05-19T12:20:17;20.70;38.40
56478;DHT22;42382;53.210;5.772;2023-05-19T12:22:43;20.60;38.80
56478;DHT22;42382;53.210;5.772;2023-05-19T12:25:09;20.60;38.60
56478;DHT22;42382;53.210;5.772;2023-05-19T12:27:35;20.40;38.50
56478;DHT22;42382;53.210;5.772;2023-05-19T12:30:03;20.30;39.00
56478;DHT22;42382;53.210;5.772;2023-05-19T12:32:28;20.20;40.30
56478;DHT22;42382;53.210;5.772;2023-05-19T12:34:57;20.20;39.60
56478;DHT22;42382;53.210;5.772;2023-05-19T12:37:26;20.20;40.50
56478;DHT22;42382;53.210;5.772;2023-05-19T12:39:55;20.30;39.20
56478;DHT22;42382;53.210;5.772;2023-05-19T12:42:22;20.30;39.70
56478;DHT22;42382;53.210;5.772;2023-05-19T12:44:49;20.30;39.50
56478;DHT22;42382;53.210;5.772;2023-05-19T12:47:17;20.40;39.10
56478;DHT22;42382;53.210;5.772;2023-05-19T12:50:06;20.30;39.80
56478;DHT22;42382;53.210;5.772;2023-05-19T12:52:47;20.30;39.90
56478;DHT22;42382;53.210;5.772;2023-05-19T12:55:15;20.20;41.40
56478;DHT22;42382;53.210;5.772;2023-05-19T12:57:42;20.20;41.70
56478;DHT22;42382;53.210;5.772;2023-05-19T13:00:16;20.10;39.10
56478;DHT22;42382;53.210;5.772;2023-05-19T13:02:59;19.90;41.10
56478;DHT22;42382;53.210;5.772;2023-05-19T13:05:26;19.60;42.50
56478;DHT22;42382;53.210;5.772;2023-05-19T13:10:31;19.50;41.50
56478;DHT22;42382;53.210;5.772;2023-05-19T13:12:58;19.40;42.90
56478;DHT22;42382;53.210;5.772;2023-05-19T13:15:29;19.40;43.40
56478;DHT22;42382;53.210;5.772;2023-05-19T13:17:56;19.50;43.10
56478;DHT22;42382;53.210;5.772;2023-05-19T13:20:22;19.50;44.00
56478;DHT22;42382;53.210;5.772;2023-05-19T13:22:49;19.70;44.70
56478;DHT22;42382;53.210;5.772;2023-05-19T13:25:15;19.80;43.80
56478;DHT22;42382;53.210;5.772;2023-05-19T13:27:41;19.90;44.60
56478;DHT22;42382;53.210;5.772;2023-05-19T13:30:07;19.90;45.60
56478;DHT22;42382;53.210;5.772;2023-05-19T13:32:33;20.00;45.30
56478;DHT22;42382;53.210;5.772;2023-05-19T13:35:02;20.10;46.20
56478;DHT22;42382;53.210;5.772;2023-05-19T13:37:28;20.20;45.60
56478;DHT22;42382;53.210;5.772;2023-05-19T13:39:53;20.30;45.30
56478;DHT22;42382;53.210;5.772;2023-05-19T13:42:19;20.30;44.80
56478;DHT22;42382;53.210;5.772;2023-05-19T13:44:45;20.30;44.80
56478;DHT22;42382;53.210;5.772;2023-05-19T13:47:11;20.20;46.20
56478;DHT22;42382;53.210;5.772;2023-05-19T13:49:36;20.30;46.20
56478;DHT22;42382;53.210;5.772;2023-05-19T13:52:03;20.40;45.70
56478;DHT22;42382;53.210;5.772;2023-05-19T13:54:29;20.40;44.80
56478;DHT22;42382;53.210;5.772;2023-05-19T13:56:55;20.20;45.30
56478;DHT22;42382;53.210;5.772;2023-05-19T13:59:20;20.20;45.60
56478;DHT22;42382;53.210;5.772;2023-05-19T14:01:46;20.30;45.50
56478;DHT22;42382;53.210;5.772;2023-05-19T14:04:12;20.30;45.50
56478;DHT22;42382;53.210;5.772;2023-05-19T14:06:38;20.20;46.10
56478;DHT22;42382;53.210;5.772;2023-05-19T14:09:04;20.20;46.30
56478;DHT22;42382;53.210;5.772;2023-05-19T14:11:30;20.30;46.40
56478;DHT22;42382;53.210;5.772;2023-05-19T14:13:56;20.40;46.80
56478;DHT22;42382;53.210;5.772;2023-05-19T14:16:22;20.50;45.70
56478;DHT22;42382;53.210;5.772;2023-05-19T14:18:48;20.50;45.50
56478;DHT22;42382;53.210;5.772;2023-05-19T14:21:14;20.60;46.50
56478;DHT22;42382;53.210;5.772;2023-05-19T14:23:40;20.60;45.90
56478;DHT22;42382;53.210;5.772;2023-05-19T14:26:05;20.60;45.60
56478;DHT22;42382;53.210;5.772;2023-05-19T14:28:31;20.50;45.70
56478;DHT22;42382;53.210;5.772;2023-05-19T14:30:57;20.50;47.00
56478;DHT22;42382;53.210;5.772;2023-05-19T14:33:22;20.60;46.70
56478;DHT22;42382;53.210;5.772;2023-05-19T14:35:48;20.50;46.30
56478;DHT22;42382;53.210;5.772;2023-05-19T14:38:13;20.40;46.90
56478;DHT22;42382;53.210;5.772;2023-05-19T14:40:39;20.40;46.90
56478;DHT22;42382;53.210;5.772;2023-05-19T14:43:06;20.20;47.20
56478;DHT22;42382;53.210;5.772;2023-05-19T14:45:32;20.20;47.40
56478;DHT22;42382;53.210;5.772;2023-05-19T14:47:58;20.20;48.50
56478;DHT22;42382;53.210;5.772;2023-05-19T14:50:23;20.20;48.70
56478;DHT22;42382;53.210;5.772;2023-05-19T14:52:49;20.20;47.00
56478;DHT22;42382;53.210;5.772;2023-05-19T14:55:15;20.10;47.30
56478;DHT22;42382;53.210;5.772;2023-05-19T14:57:40;20.00;48.20
56478;DHT22;42382;53.210;5.772;2023-05-19T15:00:06;20.00;47.20
56478;DHT22;42382;53.210;5.772;2023-05-19T15:02:34;19.90;47.50
56478;DHT22;42382;53.210;5.772;2023-05-19T15:05:00;19.90;48.00
56478;DHT22;42382;53.210;5.772;2023-05-19T15:07:26;20.00;47.60
56478;DHT22;42382;53.210;5.772;2023-05-19T15:09:52;19.90;48.50
56478;DHT22;42382;53.210;5.772;2023-05-19T15:12:17;19.90;47.20
56478;DHT22;42382;53.210;5.772;2023-05-19T15:14:43;19.80;48.60
56478;DHT22;42382;53.210;5.772;2023-05-19T15:17:09;19.60;48.30
56478;DHT22;42382;53.210;5.772;2023-05-19T15:19:35;19.60;48.60
56478;DHT22;42382;53.210;5.772;2023-05-19T15:22:00;19.60;47.60
56478;DHT22;42382;53.210;5.772;2023-05-19T15:24:26;19.40;48.40
56478;DHT22;42382;53.210;5.772;2023-05-19T15:26:51;19.50;49.70
56478;DHT22;42382;53.210;5.772;2023-05-19T15:29:18;19.60;49.80
56478;DHT22;42382;53.210;5.772;2023-05-19T15:31:44;19.90;49.00
56478;DHT22;42382;53.210;5.772;2023-05-19T15:34:10;19.90;47.80
56478;DHT22;42382;53.210;5.772;2023-05-19T15:36:35;20.00;48.50
56478;DHT22;42382;53.210;5.772;2023-05-19T15:39:01;20.10;47.20
56478;DHT22;42382;53.210;5.772;2023-05-19T15:41:28;20.20;45.80
56478;DHT22;42382;53.210;5.772;2023-05-19T15:43:53;20.10;46.70
56478;DHT22;42382;53.210;5.772;2023-05-19T15:46:19;20.10;47.40
56478;DHT22;42382;53.210;5.772;2023-05-19T15:48:44;20.10;46.20
56478;DHT22;42382;53.210;5.772;2023-05-19T15:51:10;20.00;46.00
56478;DHT22;42382;53.210;5.772;2023-05-19T15:53:36;19.90;47.60
56478;DHT22;42382;53.210;5.772;2023-05-19T15:56:02;20.00;48.30
56478;DHT22;42382;53.210;5.772;2023-05-19T15:58:28;19.90;48.90